sensor_id;sensor_type;location;lat;lon;timestamp;pressure;altitude;pressure_sealevel;temperature;humidity
61271;BME280;47150;53.032;8.960;2023-01-13T00:01:09;100076.25;;;14.86;100.00
61271;BME280;47150;53.032;8.960;2023-01-13T00:03:35;100069.53;;;13.35;100.00
61271;BME280;47150;53.032;8.960;2023-01-13T00:06:01;100063.44;;;13.55;100.00
61271;BME280;47150;53.032;8.960;2023-01-13T00:08:27;100062.25;;;13.62;100.00
61271;BME280;47150;53.032;8.960;2023-01-13T00:10:53;100059.00;;;13.55;100.00
61271;BME280;47150;53.032;8.960;2023-01-13T00:13:18;100056.16;;;13.82;100.00
61271;BME280;47150;53.032;8.960;2023-01-13T00:16:02;100053.78;;;13.96;100.00
61271;BME280;47150;53.032;8.960;2023-01-13T00:18:33;100016.56;;;14.22;100.00
61271;BME280;47150;53.032;8.960;2023-01-13T00:21:04;100010.19;;;14.07;100.00
61271;BME280;47150;53.032;8.960;2023-01-13T00:23:31;100023.13;;;13.72;100.00
61271;BME280;47150;53.032;8.960;2023-01-13T00:26:02;100011.59;;;13.74;100.00
61271;BME280;47150;53.032;8.960;2023-01-13T00:28:30;99997.19;;;12.74;100.00
61271;BME280;47150;53.032;8.960;2023-01-13T00:30:55;100017.47;;;12.94;100.00
61271;BME280;47150;53.032;8.960;2023-01-13T00:33:23;100010.31;;;13.42;100.00
61271;BME280;47150;53.032;8.960;2023-01-13T00:35:56;100024.66;;;13.35;100.00
61271;BME280;47150;53.032;8.960;2023-01-13T00:38:23;100017.84;;;13.07;100.00
61271;BME280;47150;53.032;8.960;2023-01-13T00:41:03;100010.53;;;13.14;100.00
61271;BME280;47150;53.032;8.960;2023-01-13T00:43:33;100007.13;;;13.11;100.00
61271;BME280;47150;53.032;8.960;2023-01-13T00:46:00;100007.69;;;12.98;100.00
61271;BME280;47150;53.032;8.960;2023-01-13T00:48:27;100012.88;;;12.77;100.00
61271;BME280;47150;53.032;8.960;2023-01-13T00:51:04;100005.88;;;12.76;100.00
61271;BME280;47150;53.032;8.960;2023-01-13T00:53:43;100013.31;;;13.10;100.00
61271;BME280;47150;53.032;8.960;2023-01-13T00:56:16;100013.03;;;12.96;100.00
61271;BME280;47150;53.032;8.960;2023-01-13T00:58:44;100019.56;;;13.08;100.00
61271;BME280;47150;53.032;8.960;2023-01-13T01:01:16;100015.81;;;12.91;100.00
61271;BME280;47150;53.032;8.960;2023-01-13T01:03:45;100019.88;;;12.78;100.00
61271;BME280;47150;53.032;8.960;2023-01-13T01:06:18;100016.69;;;12.92;100.00
61271;BME280;47150;53.032;8.960;2023-01-13T01:08:46;100032.13;;;13.23;100.00
61271;BME280;47150;53.032;8.960;2023-01-13T01:11:14;100034.09;;;12.74;100.00
61271;BME280;47150;53.032;8.960;2023-01-13T01:13:42;100040.78;;;12.83;100.00
61271;BME280;47150;53.032;8.960;2023-01-13T01:16:10;100042.66;;;12.79;100.00
61271;BME280;47150;53.032;8.960;2023-01-13T01:18:41;100047.88;;;12.81;100.00
61271;BME280;47150;53.032;8.960;2023-01-13T01:21:08;100048.97;;;12.51;100.00
61271;BME280;47150;53.032;8.960;2023-01-13T01:23:36;100060.16;;;12.58;100.00
61271;BME280;47150;53.032;8.960;2023-01-13T01:26:05;100060.78;;;12.41;100.00
61271;BME280;47150;53.032;8.960;2023-01-13T01:28:33;100053.84;;;12.38;100.00
61271;BME280;47150;53.032;8.960;2023-01-13T01:30:59;100049.50;;;12.61;100.00
61271;BME280;47150;53.032;8.960;2023-01-13T01:33:29;100053.34;;;12.52;100.00
61271;BME280;47150;53.032;8.960;2023-01-13T01:35:54;100065.59;;;12.77;100.00
61271;BME280;47150;53.032;8.960;2023-01-13T01:38:20;100069.47;;;12.19;100.00
61271;BME280;47150;53.032;8.960;2023-01-13T01:40:47;100050.59;;;12.55;100.00
61271;BME280;47150;53.032;8.960;2023-01-13T01:43:15;100053.31;;;12.29;100.00
61271;BME280;47150;53.032;8.960;2023-01-13T01:46:02;100051.47;;;12.31;100.00
61271;BME280;47150;53.032;8.960;2023-01-13T01:48:31;100049.03;;;12.26;100.00
61271;BME280;47150;53.032;8.960;2023-01-13T01:51:08;100059.06;;;11.89;100.00
61271;BME280;47150;53.032;8.960;2023-01-13T01:53:38;100046.03;;;12.12;100.00
61271;BME280;47150;53.032;8.960;2023-01-13T01:56:07;100046.66;;;12.43;100.00
61271;BME280;47150;53.032;8.960;2023-01-13T01:58:39;100048.41;;;11.92;100.00
61271;BME280;47150;53.032;8.960;2023-01-13T02:01:12;100036.16;;;12.42;100.00
61271;BME280;47150;53.032;8.960;2023-01-13T02:03:42;100040.44;;;11.96;100.00
61271;BME280;47150;53.032;8.960;2023-01-13T02:06:15;100032.50;;;12.46;100.00
61271;BME280;47150;53.032;8.960;2023-01-13T02:08:41;100044.63;;;12.01;100.00
61271;BME280;47150;53.032;8.960;2023-01-13T02:11:06;100035.22;;;12.19;100.00
61271;BME280;47150;53.032;8.960;2023-01-13T02:13:54;100043.53;;;11.82;100.00
61271;BME280;47150;53.032;8.960;2023-01-13T02:16:22;100043.38;;;11.59;100.00
61271;BME280;47150;53.032;8.960;2023-01-13T02:22:19;100041.91;;;11.78;100.00
61271;BME280;47150;53.032;8.960;2023-01-13T02:30:43;100056.31;;;11.92;100.00
61271;BME280;47150;53.032;8.960;2023-01-13T02:38:50;100060.50;;;11.73;100.00
61271;BME280;47150;53.032;8.960;2023-01-13T02:41:35;100062.03;;;12.05;100.00
61271;BME280;47150;53.032;8.960;2023-01-13T02:44:27;100060.91;;;11.61;100.00
61271;BME280;47150;53.032;8.960;2023-01-13T02:47:18;100061.59;;;11.66;100.00
61271;BME280;47150;53.032;8.960;2023-01-13T02:49:50;100067.78;;;11.65;100.00
61271;BME280;47150;53.032;8.960;2023-01-13T02:52:26;100073.47;;;11.52;100.00
61271;BME280;47150;53.032;8.960;2023-01-13T02:55:02;100073.47;;;12.04;100.00
61271;BME280;47150;53.032;8.960;2023-01-13T02:57:33;100078.25;;;12.18;100.00
61271;BME280;47150;53.032;8.960;2023-01-13T03:00:05;100087.41;;;12.08;100.00
61271;BME280;47150;53.032;8.960;2023-01-13T03:02:31;100091.16;;;11.74;100.00
61271;BME280;47150;53.032;8.960;2023-01-13T03:04:58;100085.34;;;11.91;100.00
61271;BME280;47150;53.032;8.960;2023-01-13T03:18:28;100057.03;;;11.71;100.00
61271;BME280;47150;53.032;8.960;2023-01-13T03:21:19;100054.69;;;11.63;100.00
61271;BME280;47150;53.032;8.960;2023-01-13T03:28:56;100060.00;;;11.62;100.00
61271;BME280;47150;53.032;8.960;2023-01-13T03:31:30;100056.75;;;11.27;100.00
61271;BME280;47150;53.032;8.960;2023-01-13T03:34:04;100062.22;;;10.90;100.00
61271;BME280;47150;53.032;8.960;2023-01-13T03:36:35;100053.69;;;11.12;100.00
61271;BME280;47150;53.032;8.960;2023-01-13T03:39:10;100042.69;;;10.99;100.00
61271;BME280;47150;53.032;8.960;2023-01-13T03:41:53;100041.97;;;11.22;100.00
61271;BME280;47150;53.032;8.960;2023-01-13T03:45:26;100050.00;;;11.18;100.00
61271;BME280;47150;53.032;8.960;2023-01-13T03:47:54;100039.78;;;11.08;100.00
61271;BME280;47150;53.032;8.960;2023-01-13T03:50:28;100039.47;;;10.89;100.00
61271;BME280;47150;53.032;8.960;2023-01-13T03:53:09;100043.47;;;11.03;100.00
61271;BME280;47150;53.032;8.960;2023-01-13T03:55:44;100048.44;;;11.12;100.00
61271;BME280;47150;53.032;8.960;2023-01-13T03:58:23;100040.09;;;10.98;100.00
61271;BME280;47150;53.032;8.960;2023-01-13T04:01:25;100042.97;;;10.90;100.00
61271;BME280;47150;53.032;8.960;2023-01-13T04:04:33;100040.59;;;11.11;100.00
61271;BME280;47150;53.032;8.960;2023-01-13T04:07:11;100049.09;;;10.90;100.00
61271;BME280;47150;53.032;8.960;2023-01-13T04:09:52;100049.81;;;10.96;100.00
61271;BME280;47150;53.032;8.960;2023-01-13T04:12:30;100041.88;;;10.67;100.00
61271;BME280;47150;53.032;8.960;2023-01-13T04:15:20;100056.84;;;10.95;100.00
61271;BME280;47150;53.032;8.960;2023-01-13T04:17:49;100063.00;;;10.64;100.00
61271;BME280;47150;53.032;8.960;2023-01-13T04:20:15;100064.94;;;10.57;100.00
61271;BME280;47150;53.032;8.960;2023-01-13T04:22:41;100051.00;;;10.85;100.00
61271;BME280;47150;53.032;8.960;2023-01-13T04:25:07;100048.34;;;10.85;100.00
61271;BME280;47150;53.032;8.960;2023-01-13T04:27:33;100049.91;;;10.93;100.00
61271;BME280;47150;53.032;8.960;2023-01-13T04:30:03;100057.44;;;10.75;100.00
61271;BME280;47150;53.032;8.960;2023-01-13T04:32:29;100058.06;;;10.83;100.00
61271;BME280;47150;53.032;8.960;2023-01-13T04:34:54;100061.13;;;10.98;100.00
61271;BME280;47150;53.032;8.960;2023-01-13T04:37:20;100051.97;;;10.83;100.00
61271;BME280;47150;53.032;8.960;2023-01-13T04:39:45;100049.97;;;11.19;100.00
61271;BME280;47150;53.032;8.960;2023-01-13T04:42:11;100042.56;;;11.04;100.00
61271;BME280;47150;53.032;8.960;2023-01-13T04:44:37;100030.78;;;10.87;100.00
61271;BME280;47150;53.032;8.960;2023-01-13T04:47:05;100026.84;;;11.02;100.00
61271;BME280;47150;53.032;8.960;2023-01-13T04:57:53;100027.00;;;10.68;100.00
61271;BME280;47150;53.032;8.960;2023-01-13T05:00:33;100027.97;;;10.94;100.00
61271;BME280;47150;53.032;8.960;2023-01-13T05:02:59;100020.19;;;10.90;100.00
61271;BME280;47150;53.032;8.960;2023-01-13T05:05:26;100026.84;;;10.72;100.00
61271;BME280;47150;53.032;8.960;2023-01-13T05:07:53;100013.41;;;10.83;100.00
61271;BME280;47150;53.032;8.960;2023-01-13T05:10:19;99997.84;;;10.47;100.00
61271;BME280;47150;53.032;8.960;2023-01-13T05:12:45;100003.41;;;10.95;100.00
61271;BME280;47150;53.032;8.960;2023-01-13T05:15:29;100009.88;;;10.84;100.00
61271;BME280;47150;53.032;8.960;2023-01-13T05:18:14;100003.81;;;10.52;100.00
61271;BME280;47150;53.032;8.960;2023-01-13T05:20:41;100008.88;;;10.59;100.00
61271;BME280;47150;53.032;8.960;2023-01-13T05:23:06;100012.19;;;10.65;100.00
61271;BME280;47150;53.032;8.960;2023-01-13T05:25:51;100012.88;;;10.72;100.00
61271;BME280;47150;53.032;8.960;2023-01-13T05:28:16;100006.53;;;11.06;100.00
61271;BME280;47150;53.032;8.960;2023-01-13T05:30:44;100009.13;;;10.49;100.00
61271;BME280;47150;53.032;8.960;2023-01-13T05:33:14;99999.00;;;10.67;100.00
61271;BME280;47150;53.032;8.960;2023-01-13T05:35:46;99995.16;;;10.77;100.00
61271;BME280;47150;53.032;8.960;2023-01-13T05:38:12;100002.22;;;11.03;100.00
61271;BME280;47150;53.032;8.960;2023-01-13T05:40:39;100000.00;;;11.19;100.00
61271;BME280;47150;53.032;8.960;2023-01-13T05:43:24;100003.31;;;10.69;100.00
61271;BME280;47150;53.032;8.960;2023-01-13T05:46:01;100005.81;;;11.02;100.00
61271;BME280;47150;53.032;8.960;2023-01-13T05:48:37;99994.31;;;10.48;100.00
61271;BME280;47150;53.032;8.960;2023-01-13T05:51:07;99999.03;;;10.95;100.00
61271;BME280;47150;53.032;8.960;2023-01-13T05:53:34;100001.56;;;10.68;100.00
61271;BME280;47150;53.032;8.960;2023-01-13T05:56:05;100004.84;;;11.05;100.00
61271;BME280;47150;53.032;8.960;2023-01-13T05:58:32;99992.06;;;10.64;100.00
61271;BME280;47150;53.032;8.960;2023-01-13T06:01:00;99990.31;;;10.93;100.00
61271;BME280;47150;53.032;8.960;2023-01-13T06:03:30;99991.16;;;11.22;100.00
61271;BME280;47150;53.032;8.960;2023-01-13T06:05:55;99990.06;;;11.01;100.00
61271;BME280;47150;53.032;8.960;2023-01-13T06:08:25;99999.09;;;11.20;100.00
61271;BME280;47150;53.032;8.960;2023-01-13T06:10:51;99992.16;;;11.18;100.00
61271;BME280;47150;53.032;8.960;2023-01-13T06:13:17;99999.19;;;11.44;100.00
61271;BME280;47150;53.032;8.960;2023-01-13T06:15:42;100002.44;;;10.97;100.00
61271;BME280;47150;53.032;8.960;2023-01-13T06:18:08;100004.34;;;10.92;100.00
61271;BME280;47150;53.032;8.960;2023-01-13T06:20:33;100006.47;;;11.36;100.00
61271;BME280;47150;53.032;8.960;2023-01-13T06:22:59;100003.53;;;11.18;100.00
61271;BME280;47150;53.032;8.960;2023-01-13T06:25:50;100008.78;;;11.18;100.00
61271;BME280;47150;53.032;8.960;2023-01-13T06:28:32;100003.78;;;10.82;100.00
61271;BME280;47150;53.032;8.960;2023-01-13T06:31:03;99993.06;;;11.17;100.00
61271;BME280;47150;53.032;8.960;2023-01-13T06:33:35;100006.84;;;10.97;100.00
61271;BME280;47150;53.032;8.960;2023-01-13T06:36:09;99991.38;;;10.87;100.00
61271;BME280;47150;53.032;8.960;2023-01-13T06:38:44;100010.91;;;11.07;100.00
61271;BME280;47150;53.032;8.960;2023-01-13T06:41:14;99996.28;;;10.98;100.00
61271;BME280;47150;53.032;8.960;2023-01-13T06:43:40;100000.63;;;10.99;100.00
61271;BME280;47150;53.032;8.960;2023-01-13T06:46:06;100005.53;;;11.10;100.00
61271;BME280;47150;53.032;8.960;2023-01-13T06:48:33;99989.91;;;11.05;100.00
61271;BME280;47150;53.032;8.960;2023-01-13T06:51:00;100006.75;;;11.00;100.00
61271;BME280;47150;53.032;8.960;2023-01-13T06:53:26;100006.34;;;10.84;100.00
61271;BME280;47150;53.032;8.960;2023-01-13T06:55:52;100001.66;;;10.95;100.00
61271;BME280;47150;53.032;8.960;2023-01-13T06:58:17;100002.91;;;11.10;100.00
61271;BME280;47150;53.032;8.960;2023-01-13T07:00:43;100006.97;;;11.20;100.00
61271;BME280;47150;53.032;8.960;2023-01-13T07:03:13;100013.16;;;10.91;100.00
61271;BME280;47150;53.032;8.960;2023-01-13T07:05:41;100004.50;;;10.87;100.00
61271;BME280;47150;53.032;8.960;2023-01-13T07:08:09;100024.31;;;10.98;100.00
61271;BME280;47150;53.032;8.960;2023-01-13T07:10:35;100017.75;;;10.84;100.00
61271;BME280;47150;53.032;8.960;2023-01-13T07:13:03;100014.28;;;10.82;100.00
61271;BME280;47150;53.032;8.960;2023-01-13T07:15:52;100020.28;;;10.87;100.00
61271;BME280;47150;53.032;8.960;2023-01-13T07:18:22;100017.38;;;10.97;100.00
61271;BME280;47150;53.032;8.960;2023-01-13T07:20:53;100018.94;;;11.02;100.00
61271;BME280;47150;53.032;8.960;2023-01-13T07:23:19;100008.66;;;10.95;100.00
61271;BME280;47150;53.032;8.960;2023-01-13T07:25:45;100016.31;;;11.02;100.00
61271;BME280;47150;53.032;8.960;2023-01-13T07:28:10;100013.34;;;10.56;100.00
61271;BME280;47150;53.032;8.960;2023-01-13T07:30:37;100025.44;;;10.62;100.00
61271;BME280;47150;53.032;8.960;2023-01-13T07:33:02;100016.41;;;10.71;100.00
61271;BME280;47150;53.032;8.960;2023-01-13T07:35:28;100007.59;;;11.00;100.00
61271;BME280;47150;53.032;8.960;2023-01-13T07:37:53;100021.44;;;10.77;100.00
61271;BME280;47150;53.032;8.960;2023-01-13T07:47:09;100008.66;;;10.95;100.00
61271;BME280;47150;53.032;8.960;2023-01-13T07:49:35;100013.94;;;10.35;100.00
61271;BME280;47150;53.032;8.960;2023-01-13T07:52:02;100013.88;;;10.68;100.00
61271;BME280;47150;53.032;8.960;2023-01-13T07:54:28;100018.06;;;10.73;100.00
61271;BME280;47150;53.032;8.960;2023-01-13T07:56:56;100016.84;;;10.24;100.00
61271;BME280;47150;53.032;8.960;2023-01-13T07:59:22;100019.56;;;10.21;100.00
61271;BME280;47150;53.032;8.960;2023-01-13T08:01:47;100019.63;;;10.51;100.00
61271;BME280;47150;53.032;8.960;2023-01-13T08:04:13;100016.13;;;10.50;100.00
61271;BME280;47150;53.032;8.960;2023-01-13T08:06:39;100023.53;;;10.66;100.00
61271;BME280;47150;53.032;8.960;2023-01-13T08:17:35;100030.84;;;10.86;100.00
61271;BME280;47150;53.032;8.960;2023-01-13T08:20:02;100029.34;;;10.77;100.00
61271;BME280;47150;53.032;8.960;2023-01-13T08:22:27;100028.06;;;10.90;100.00
61271;BME280;47150;53.032;8.960;2023-01-13T08:24:55;100042.00;;;10.64;100.00
61271;BME280;47150;53.032;8.960;2023-01-13T08:27:21;100033.53;;;10.84;100.00
61271;BME280;47150;53.032;8.960;2023-01-13T08:29:47;100032.47;;;10.90;100.00
61271;BME280;47150;53.032;8.960;2023-01-13T08:32:12;100032.69;;;10.82;100.00
61271;BME280;47150;53.032;8.960;2023-01-13T08:34:38;100034.94;;;10.66;100.00
61271;BME280;47150;53.032;8.960;2023-01-13T08:37:03;100039.34;;;10.94;100.00
61271;BME280;47150;53.032;8.960;2023-01-13T08:39:29;100025.38;;;10.92;100.00
61271;BME280;47150;53.032;8.960;2023-01-13T08:41:54;100028.72;;;11.25;100.00
61271;BME280;47150;53.032;8.960;2023-01-13T08:44:24;100023.53;;;10.66;100.00
61271;BME280;47150;53.032;8.960;2023-01-13T08:46:51;100046.81;;;11.08;100.00
61271;BME280;47150;53.032;8.960;2023-01-13T08:49:18;100029.13;;;11.13;100.00
61271;BME280;47150;53.032;8.960;2023-01-13T08:51:44;100022.31;;;10.78;100.00
61271;BME280;47150;53.032;8.960;2023-01-13T08:54:10;100033.03;;;11.00;100.00
61271;BME280;47150;53.032;8.960;2023-01-13T08:56:41;100033.94;;;10.99;100.00
61271;BME280;47150;53.032;8.960;2023-01-13T08:59:16;100036.75;;;11.21;100.00
61271;BME280;47150;53.032;8.960;2023-01-13T09:01:43;100026.59;;;10.82;100.00
61271;BME280;47150;53.032;8.960;2023-01-13T09:04:18;100036.19;;;11.38;100.00
61271;BME280;47150;53.032;8.960;2023-01-13T09:06:46;100032.25;;;10.96;100.00
61271;BME280;47150;53.032;8.960;2023-01-13T09:09:12;100022.63;;;10.97;100.00
61271;BME280;47150;53.032;8.960;2023-01-13T09:11:42;100040.72;;;11.06;100.00
61271;BME280;47150;53.032;8.960;2023-01-13T09:14:31;100033.56;;;11.38;100.00
61271;BME280;47150;53.032;8.960;2023-01-13T09:16:59;100030.81;;;11.14;100.00
61271;BME280;47150;53.032;8.960;2023-01-13T09:19:25;100030.25;;;11.04;100.00
61271;BME280;47150;53.032;8.960;2023-01-13T09:21:53;100029.88;;;11.17;100.00
61271;BME280;47150;53.032;8.960;2023-01-13T09:24:20;100026.88;;;11.81;100.00
61271;BME280;47150;53.032;8.960;2023-01-13T09:26:46;100028.53;;;11.32;100.00
61271;BME280;47150;53.032;8.960;2023-01-13T09:29:12;100041.34;;;11.14;100.00
61271;BME280;47150;53.032;8.960;2023-01-13T09:31:38;100024.16;;;11.31;100.00
61271;BME280;47150;53.032;8.960;2023-01-13T09:34:05;100022.88;;;11.16;100.00
61271;BME280;47150;53.032;8.960;2023-01-13T09:36:50;100029.50;;;11.01;100.00
61271;BME280;47150;53.032;8.960;2023-01-13T09:39:16;100030.06;;;11.64;100.00
61271;BME280;47150;53.032;8.960;2023-01-13T09:41:51;100038.88;;;11.10;100.00
61271;BME280;47150;53.032;8.960;2023-01-13T09:45:14;100037.34;;;11.02;100.00
61271;BME280;47150;53.032;8.960;2023-01-13T09:47:53;100038.66;;;11.16;100.00
61271;BME280;47150;53.032;8.960;2023-01-13T09:53:49;100035.63;;;10.73;100.00
61271;BME280;47150;53.032;8.960;2023-01-13T09:56:22;100028.13;;;11.44;100.00
61271;BME280;47150;53.032;8.960;2023-01-13T09:58:48;100033.16;;;10.97;100.00
61271;BME280;47150;53.032;8.960;2023-01-13T10:01:42;100066.97;;;11.36;100.00
61271;BME280;47150;53.032;8.960;2023-01-13T10:04:17;100036.38;;;11.33;100.00
61271;BME280;47150;53.032;8.960;2023-01-13T10:06:49;100038.34;;;11.53;100.00
61271;BME280;47150;53.032;8.960;2023-01-13T10:09:26;100027.34;;;11.40;100.00
61271;BME280;47150;53.032;8.960;2023-01-13T10:11:58;100045.72;;;11.42;100.00
61271;BME280;47150;53.032;8.960;2023-01-13T10:14:54;100022.75;;;11.47;100.00
61271;BME280;47150;53.032;8.960;2023-01-13T10:20:16;100010.72;;;11.40;100.00
61271;BME280;47150;53.032;8.960;2023-01-13T10:26:03;100008.81;;;11.45;100.00
61271;BME280;47150;53.032;8.960;2023-01-13T10:28:33;100017.97;;;11.58;100.00
61271;BME280;47150;53.032;8.960;2023-01-13T10:30:59;100041.13;;;11.49;100.00
61271;BME280;47150;53.032;8.960;2023-01-13T10:33:25;100011.56;;;11.92;100.00
61271;BME280;47150;53.032;8.960;2023-01-13T10:35:59;100014.06;;;11.45;100.00
61271;BME280;47150;53.032;8.960;2023-01-13T10:41:03;100022.66;;;12.02;100.00
61271;BME280;47150;53.032;8.960;2023-01-13T10:44:03;100033.25;;;12.01;100.00
61271;BME280;47150;53.032;8.960;2023-01-13T10:46:35;100037.91;;;11.66;100.00
61271;BME280;47150;53.032;8.960;2023-01-13T10:49:36;100068.59;;;11.40;100.00
61271;BME280;47150;53.032;8.960;2023-01-13T10:52:23;100088.38;;;11.52;100.00
61271;BME280;47150;53.032;8.960;2023-01-13T10:54:52;100117.09;;;10.73;100.00
61271;BME280;47150;53.032;8.960;2023-01-13T10:57:21;100121.97;;;10.21;100.00
61271;BME280;47150;53.032;8.960;2023-01-13T10:59:48;100116.84;;;10.16;100.00
61271;BME280;47150;53.032;8.960;2023-01-13T11:02:16;100101.66;;;10.28;100.00
61271;BME280;47150;53.032;8.960;2023-01-13T11:10:29;100099.03;;;10.61;100.00
61271;BME280;47150;53.032;8.960;2023-01-13T11:12:58;100093.03;;;10.85;100.00
61271;BME280;47150;53.032;8.960;2023-01-13T11:15:42;100096.66;;;10.83;100.00
61271;BME280;47150;53.032;8.960;2023-01-13T11:18:20;100089.56;;;10.55;100.00
61271;BME280;47150;53.032;8.960;2023-01-13T11:20:53;100064.19;;;10.84;100.00
61271;BME280;47150;53.032;8.960;2023-01-13T11:23:30;100061.03;;;11.29;100.00
61271;BME280;47150;53.032;8.960;2023-01-13T11:26:10;100075.13;;;11.55;100.00
61271;BME280;47150;53.032;8.960;2023-01-13T11:28:56;100068.38;;;11.46;100.00
61271;BME280;47150;53.032;8.960;2023-01-13T11:31:34;100068.16;;;11.25;100.00
61271;BME280;47150;53.032;8.960;2023-01-13T11:34:27;100065.50;;;10.99;100.00
61271;BME280;47150;53.032;8.960;2023-01-13T11:37:13;100066.75;;;11.15;100.00
61271;BME280;47150;53.032;8.960;2023-01-13T11:39:54;100070.78;;;11.27;100.00
61271;BME280;47150;53.032;8.960;2023-01-13T11:42:34;100072.13;;;10.82;100.00
61271;BME280;47150;53.032;8.960;2023-01-13T11:45:45;100067.31;;;10.97;100.00
61271;BME280;47150;53.032;8.960;2023-01-13T11:48:18;100083.69;;;11.06;100.00
61271;BME280;47150;53.032;8.960;2023-01-13T11:53:59;100077.88;;;11.23;100.00
61271;BME280;47150;53.032;8.960;2023-01-13T12:05:43;100089.31;;;11.22;100.00
61271;BME280;47150;53.032;8.960;2023-01-13T12:11:39;100069.19;;;11.75;100.00
61271;BME280;47150;53.032;8.960;2023-01-13T12:18:16;100068.91;;;11.57;100.00
61271;BME280;47150;53.032;8.960;2023-01-13T12:26:37;100089.69;;;11.38;100.00
61271;BME280;47150;53.032;8.960;2023-01-13T12:29:13;100089.50;;;11.16;100.00
61271;BME280;47150;53.032;8.960;2023-01-13T12:31:44;100093.00;;;11.17;100.00
61271;BME280;47150;53.032;8.960;2023-01-13T12:37:34;100090.97;;;11.25;100.00
61271;BME280;47150;53.032;8.960;2023-01-13T12:43:14;100086.19;;;11.10;100.00
61271;BME280;47150;53.032;8.960;2023-01-13T12:46:48;100095.66;;;11.15;100.00
61271;BME280;47150;53.032;8.960;2023-01-13T12:49:30;100101.50;;;11.53;100.00
61271;BME280;47150;53.032;8.960;2023-01-13T12:52:13;100102.81;;;10.82;100.00
61271;BME280;47150;53.032;8.960;2023-01-13T12:57:22;100099.25;;;11.13;100.00
61271;BME280;47150;53.032;8.960;2023-01-13T13:02:39;100110.25;;;11.54;100.00
61271;BME280;47150;53.032;8.960;2023-01-13T13:08:03;100112.81;;;10.99;100.00
61271;BME280;47150;53.032;8.960;2023-01-13T13:10:41;100117.75;;;11.38;100.00
61271;BME280;47150;53.032;8.960;2023-01-13T13:13:40;100103.41;;;11.75;100.00
61271;BME280;47150;53.032;8.960;2023-01-13T13:18:50;100111.09;;;11.54;100.00
61271;BME280;47150;53.032;8.960;2023-01-13T13:24:38;100116.97;;;11.06;100.00
61271;BME280;47150;53.032;8.960;2023-01-13T13:39:32;100128.94;;;11.45;100.00
61271;BME280;47150;53.032;8.960;2023-01-13T13:42:20;100149.22;;;11.69;100.00
61271;BME280;47150;53.032;8.960;2023-01-13T13:45:22;100135.78;;;11.22;100.00
61271;BME280;47150;53.032;8.960;2023-01-13T13:48:18;100160.72;;;11.08;100.00
61271;BME280;47150;53.032;8.960;2023-01-13T13:50:52;100147.47;;;11.41;100.00
61271;BME280;47150;53.032;8.960;2023-01-13T13:53:38;100137.38;;;11.28;100.00
61271;BME280;47150;53.032;8.960;2023-01-13T13:56:15;100150.63;;;11.24;100.00
61271;BME280;47150;53.032;8.960;2023-01-13T13:58:45;100170.06;;;10.89;100.00
61271;BME280;47150;53.032;8.960;2023-01-13T14:01:25;100165.09;;;11.39;100.00
61271;BME280;47150;53.032;8.960;2023-01-13T14:04:18;100165.72;;;11.18;100.00
61271;BME280;47150;53.032;8.960;2023-01-13T14:07:17;100157.53;;;11.29;100.00
61271;BME280;47150;53.032;8.960;2023-01-13T14:09:50;100169.22;;;11.18;100.00
61271;BME280;47150;53.032;8.960;2023-01-13T14:12:25;100177.56;;;11.33;100.00
61271;BME280;47150;53.032;8.960;2023-01-13T14:14:51;100175.84;;;11.32;100.00
61271;BME280;47150;53.032;8.960;2023-01-13T14:17:27;100170.66;;;11.29;100.00
61271;BME280;47150;53.032;8.960;2023-01-13T14:20:06;100189.34;;;11.19;100.00
61271;BME280;47150;53.032;8.960;2023-01-13T14:22:38;100176.81;;;11.57;100.00
61271;BME280;47150;53.032;8.960;2023-01-13T14:25:25;100180.09;;;11.36;100.00
61271;BME280;47150;53.032;8.960;2023-01-13T14:27:58;100180.91;;;11.08;100.00
61271;BME280;47150;53.032;8.960;2023-01-13T14:30:30;100194.16;;;11.35;100.00
61271;BME280;47150;53.032;8.960;2023-01-13T14:32:57;100201.50;;;11.23;100.00
61271;BME280;47150;53.032;8.960;2023-01-13T14:35:24;100187.31;;;11.29;100.00
61271;BME280;47150;53.032;8.960;2023-01-13T14:37:49;100190.44;;;11.12;100.00
61271;BME280;47150;53.032;8.960;2023-01-13T14:43:02;100203.03;;;11.31;100.00
61271;BME280;47150;53.032;8.960;2023-01-13T14:45:34;100207.03;;;11.44;100.00
61271;BME280;47150;53.032;8.960;2023-01-13T14:48:01;100199.41;;;11.35;100.00
61271;BME280;47150;53.032;8.960;2023-01-13T14:50:33;100225.50;;;11.43;100.00
61271;BME280;47150;53.032;8.960;2023-01-13T14:52:59;100204.50;;;11.41;100.00
61271;BME280;47150;53.032;8.960;2023-01-13T15:00:44;100252.63;;;11.15;100.00
61271;BME280;47150;53.032;8.960;2023-01-13T15:03:13;100226.31;;;11.45;100.00
61271;BME280;47150;53.032;8.960;2023-01-13T15:05:51;100228.47;;;11.60;100.00
61271;BME280;47150;53.032;8.960;2023-01-13T15:08:33;100236.28;;;11.02;100.00
61271;BME280;47150;53.032;8.960;2023-01-13T15:11:03;100255.06;;;11.21;100.00
61271;BME280;47150;53.032;8.960;2023-01-13T15:13:43;100273.19;;;11.60;100.00
61271;BME280;47150;53.032;8.960;2023-01-13T15:18:41;100297.09;;;10.91;100.00
61271;BME280;47150;53.032;8.960;2023-01-13T15:21:08;100252.75;;;11.40;100.00
61271;BME280;47150;53.032;8.960;2023-01-13T15:23:34;100256.47;;;11.33;100.00
61271;BME280;47150;53.032;8.960;2023-01-13T15:26:00;100257.22;;;11.06;100.00
61271;BME280;47150;53.032;8.960;2023-01-13T15:28:26;100250.22;;;11.05;100.00
61271;BME280;47150;53.032;8.960;2023-01-13T15:30:54;100279.03;;;10.77;100.00